sensor_id;sensor_type;location;lat;lon;timestamp;temperature;humidity
16404;DHT22;8311;50.158;8.642;2023-06-14T00:00:31;26.60;35.60
16404;DHT22;8311;50.158;8.642;2023-06-14T00:03:27;26.60;35.60
16404;DHT22;8311;50.158;8.642;2023-06-14T00:06:21;26.60;35.70
16404;DHT22;8311;50.158;8.642;2023-06-14T00:09:16;26.60;35.60
16404;DHT22;8311;50.158;8.642;2023-06-14T00:12:09;26.60;35.60
16404;DHT22;8311;50.158;8.642;2023-06-14T00:15:03;26.60;35.60
16404;DHT22;8311;50.158;8.642;2023-06-14T00:17:57;26.60;35.60
16404;DHT22;8311;50.158;8.642;2023-06-14T00:20:53;26.60;35.60
16404;DHT22;8311;50.158;8.642;2023-06-14T00:23:46;26.60;35.60
16404;DHT22;8311;50.158;8.642;2023-06-14T00:26:39;26.60;35.60
16404;DHT22;8311;50.158;8.642;2023-06-14T00:29:32;26.60;35.60
16404;DHT22;8311;50.158;8.642;2023-06-14T00:32:25;26.60;35.60
16404;DHT22;8311;50.158;8.642;2023-06-14T00:35:19;26.60;35.60
16404;DHT22;8311;50.158;8.642;2023-06-14T00:38:14;26.60;35.60
16404;DHT22;8311;50.158;8.642;2023-06-14T00:41:08;26.60;35.60
16404;DHT22;8311;50.158;8.642;2023-06-14T00:44:01;26.60;35.60
16404;DHT22;8311;50.158;8.642;2023-06-14T00:46:54;26.60;35.60
16404;DHT22;8311;50.158;8.642;2023-06-14T00:49:49;26.60;35.60
16404;DHT22;8311;50.158;8.642;2023-06-14T00:52:43;26.60;35.60
16404;DHT22;8311;50.158;8.642;2023-06-14T00:55:38;26.60;35.60
16404;DHT22;8311;50.158;8.642;2023-06-14T00:58:32;26.60;35.60
16404;DHT22;8311;50.158;8.642;2023-06-14T01:01:25;26.60;35.70
16404;DHT22;8311;50.158;8.642;2023-06-14T01:04:21;26.60;35.70
16404;DHT22;8311;50.158;8.642;2023-06-14T01:07:20;26.60;35.60
16404;DHT22;8311;50.158;8.642;2023-06-14T01:10:26;26.60;35.70
16404;DHT22;8311;50.158;8.642;2023-06-14T01:13:26;26.60;35.70
16404;DHT22;8311;50.158;8.642;2023-06-14T01:16:21;26.60;35.70
16404;DHT22;8311;50.158;8.642;2023-06-14T01:19:16;26.60;35.60
16404;DHT22;8311;50.158;8.642;2023-06-14T01:22:09;26.60;35.70
16404;DHT22;8311;50.158;8.642;2023-06-14T01:25:04;26.60;35.60
16404;DHT22;8311;50.158;8.642;2023-06-14T01:28:01;26.60;35.70
16404;DHT22;8311;50.158;8.642;2023-06-14T01:31:02;26.60;35.70
16404;DHT22;8311;50.158;8.642;2023-06-14T01:33:56;26.60;35.60
16404;DHT22;8311;50.158;8.642;2023-06-14T01:36:50;26.60;35.60
16404;DHT22;8311;50.158;8.642;2023-06-14T01:39:44;26.60;35.60
16404;DHT22;8311;50.158;8.642;2023-06-14T01:42:39;26.60;35.70
16404;DHT22;8311;50.158;8.642;2023-06-14T01:45:34;26.60;35.60
16404;DHT22;8311;50.158;8.642;2023-06-14T01:48:28;26.60;35.70
16404;DHT22;8311;50.158;8.642;2023-06-14T01:51:22;26.60;35.70
16404;DHT22;8311;50.158;8.642;2023-06-14T01:54:14;26.60;35.60
16404;DHT22;8311;50.158;8.642;2023-06-14T01:57:08;26.60;35.70
16404;DHT22;8311;50.158;8.642;2023-06-14T02:00:05;26.60;35.70
16404;DHT22;8311;50.158;8.642;2023-06-14T02:03:03;26.50;35.60
16404;DHT22;8311;50.158;8.642;2023-06-14T02:05:56;26.50;35.50
16404;DHT22;8311;50.158;8.642;2023-06-14T02:08:50;26.50;35.50
16404;DHT22;8311;50.158;8.642;2023-06-14T02:11:43;26.60;35.60
16404;DHT22;8311;50.158;8.642;2023-06-14T02:14:37;26.60;35.60
16404;DHT22;8311;50.158;8.642;2023-06-14T02:17:31;26.50;35.60
16404;DHT22;8311;50.158;8.642;2023-06-14T02:20:24;26.60;35.60
16404;DHT22;8311;50.158;8.642;2023-06-14T02:23:17;26.60;35.60
16404;DHT22;8311;50.158;8.642;2023-06-14T02:26:10;26.50;35.60
16404;DHT22;8311;50.158;8.642;2023-06-14T02:29:03;26.60;35.60
16404;DHT22;8311;50.158;8.642;2023-06-14T02:31:57;26.50;35.60
16404;DHT22;8311;50.158;8.642;2023-06-14T02:34:51;26.60;35.60
16404;DHT22;8311;50.158;8.642;2023-06-14T02:37:44;26.50;35.60
16404;DHT22;8311;50.158;8.642;2023-06-14T02:40:37;26.50;35.60
16404;DHT22;8311;50.158;8.642;2023-06-14T02:43:30;26.50;35.50
16404;DHT22;8311;50.158;8.642;2023-06-14T02:46:25;26.60;35.60
16404;DHT22;8311;50.158;8.642;2023-06-14T02:49:18;26.50;35.60
16404;DHT22;8311;50.158;8.642;2023-06-14T02:52:13;26.50;35.50
16404;DHT22;8311;50.158;8.642;2023-06-14T02:55:07;26.50;35.50
16404;DHT22;8311;50.158;8.642;2023-06-14T02:58:01;26.50;35.50
16404;DHT22;8311;50.158;8.642;2023-06-14T03:00:54;26.60;35.60
16404;DHT22;8311;50.158;8.642;2023-06-14T03:03:47;26.50;35.40
16404;DHT22;8311;50.158;8.642;2023-06-14T03:06:41;26.50;35.40
16404;DHT22;8311;50.158;8.642;2023-06-14T03:09:40;26.50;35.50
16404;DHT22;8311;50.158;8.642;2023-06-14T03:12:33;26.50;35.40
16404;DHT22;8311;50.158;8.642;2023-06-14T03:15:27;26.50;35.40
16404;DHT22;8311;50.158;8.642;2023-06-14T03:18:20;26.50;35.40
16404;DHT22;8311;50.158;8.642;2023-06-14T03:21:18;26.50;35.40
16404;DHT22;8311;50.158;8.642;2023-06-14T03:24:12;26.50;35.50
16404;DHT22;8311;50.158;8.642;2023-06-14T03:27:09;26.50;35.50
16404;DHT22;8311;50.158;8.642;2023-06-14T03:30:03;26.50;35.40
16404;DHT22;8311;50.158;8.642;2023-06-14T03:32:56;26.50;35.50
16404;DHT22;8311;50.158;8.642;2023-06-14T03:35:52;26.50;35.40
16404;DHT22;8311;50.158;8.642;2023-06-14T03:38:47;26.50;35.40
16404;DHT22;8311;50.158;8.642;2023-06-14T03:41:39;26.50;35.40
16404;DHT22;8311;50.158;8.642;2023-06-14T03:44:34;26.50;35.40
16404;DHT22;8311;50.158;8.642;2023-06-14T03:47:28;26.50;35.40
16404;DHT22;8311;50.158;8.642;2023-06-14T03:50:21;26.50;35.40
16404;DHT22;8311;50.158;8.642;2023-06-14T03:53:14;26.50;35.40
16404;DHT22;8311;50.158;8.642;2023-06-14T03:56:08;26.50;35.50
16404;DHT22;8311;50.158;8.642;2023-06-14T03:59:03;26.50;35.40
16404;DHT22;8311;50.158;8.642;2023-06-14T04:01:58;26.50;35.50
16404;DHT22;8311;50.158;8.642;2023-06-14T04:04:52;26.50;35.40
16404;DHT22;8311;50.158;8.642;2023-06-14T04:07:45;26.50;35.40
16404;DHT22;8311;50.158;8.642;2023-06-14T04:10:40;26.50;35.50
16404;DHT22;8311;50.158;8.642;2023-06-14T04:13:33;26.50;35.40
16404;DHT22;8311;50.158;8.642;2023-06-14T04:16:27;26.50;35.50
16404;DHT22;8311;50.158;8.642;2023-06-14T04:19:22;26.50;35.50
16404;DHT22;8311;50.158;8.642;2023-06-14T04:22:14;26.50;35.50
16404;DHT22;8311;50.158;8.642;2023-06-14T04:25:08;26.50;35.50
16404;DHT22;8311;50.158;8.642;2023-06-14T04:28:02;26.50;35.40
16404;DHT22;8311;50.158;8.642;2023-06-14T04:30:57;26.50;35.40
16404;DHT22;8311;50.158;8.642;2023-06-14T04:33:52;26.50;35.50
16404;DHT22;8311;50.158;8.642;2023-06-14T04:36:47;26.50;35.40
16404;DHT22;8311;50.158;8.642;2023-06-14T04:39:44;26.50;35.40
16404;DHT22;8311;50.158;8.642;2023-06-14T04:42:38;26.40;35.50
16404;DHT22;8311;50.158;8.642;2023-06-14T04:45:32;26.40;35.40
16404;DHT22;8311;50.158;8.642;2023-06-14T04:48:25;26.40;35.60
16404;DHT22;8311;50.158;8.642;2023-06-14T04:51:18;26.50;35.50
16404;DHT22;8311;50.158;8.642;2023-06-14T04:54:14;26.50;35.40
16404;DHT22;8311;50.158;8.642;2023-06-14T04:57:07;26.50;35.40
16404;DHT22;8311;50.158;8.642;2023-06-14T05:00:00;26.40;35.40
16404;DHT22;8311;50.158;8.642;2023-06-14T05:02:56;26.40;35.30
16404;DHT22;8311;50.158;8.642;2023-06-14T05:05:50;26.40;35.40
16404;DHT22;8311;50.158;8.642;2023-06-14T05:08:44;26.50;35.50
16404;DHT22;8311;50.158;8.642;2023-06-14T05:11:39;26.50;35.50
16404;DHT22;8311;50.158;8.642;2023-06-14T05:14:33;26.40;35.20
16404;DHT22;8311;50.158;8.642;2023-06-14T05:17:27;26.40;35.50
16404;DHT22;8311;50.158;8.642;2023-06-14T05:20:21;26.40;35.10
16404;DHT22;8311;50.158;8.642;2023-06-14T05:23:16;26.40;34.90
16404;DHT22;8311;50.158;8.642;2023-06-14T05:26:10;26.40;35.30
16404;DHT22;8311;50.158;8.642;2023-06-14T05:29:04;26.40;35.00
16404;DHT22;8311;50.158;8.642;2023-06-14T05:31:57;26.40;34.80
16404;DHT22;8311;50.158;8.642;2023-06-14T05:34:50;26.40;34.80
16404;DHT22;8311;50.158;8.642;2023-06-14T05:37:44;26.30;34.40
16404;DHT22;8311;50.158;8.642;2023-06-14T05:40:38;26.30;34.80
16404;DHT22;8311;50.158;8.642;2023-06-14T05:43:30;26.30;34.20
16404;DHT22;8311;50.158;8.642;2023-06-14T05:46:25;26.30;34.30
16404;DHT22;8311;50.158;8.642;2023-06-14T05:49:19;26.30;34.30
16404;DHT22;8311;50.158;8.642;2023-06-14T05:52:12;26.20;34.30
16404;DHT22;8311;50.158;8.642;2023-06-14T05:55:06;26.10;34.00
16404;DHT22;8311;50.158;8.642;2023-06-14T05:57:59;26.10;34.10
16404;DHT22;8311;50.158;8.642;2023-06-14T06:00:53;26.00;34.00
16404;DHT22;8311;50.158;8.642;2023-06-14T06:03:48;26.00;34.00
16404;DHT22;8311;50.158;8.642;2023-06-14T06:06:42;26.00;34.30
16404;DHT22;8311;50.158;8.642;2023-06-14T06:09:35;26.00;34.10
16404;DHT22;8311;50.158;8.642;2023-06-14T06:12:28;26.00;34.00
16404;DHT22;8311;50.158;8.642;2023-06-14T06:15:21;26.00;34.00
16404;DHT22;8311;50.158;8.642;2023-06-14T06:18:14;26.00;34.00
16404;DHT22;8311;50.158;8.642;2023-06-14T06:21:09;26.10;34.00
16404;DHT22;8311;50.158;8.642;2023-06-14T06:24:04;26.00;34.00
16404;DHT22;8311;50.158;8.642;2023-06-14T06:26:58;25.90;34.40
16404;DHT22;8311;50.158;8.642;2023-06-14T06:29:52;25.90;34.20
16404;DHT22;8311;50.158;8.642;2023-06-14T06:32:44;25.90;34.60
16404;DHT22;8311;50.158;8.642;2023-06-14T06:35:38;25.90;34.70
16404;DHT22;8311;50.158;8.642;2023-06-14T06:38:32;25.80;34.80
16404;DHT22;8311;50.158;8.642;2023-06-14T06:41:25;25.80;34.90
16404;DHT22;8311;50.158;8.642;2023-06-14T06:44:18;25.90;34.80
16404;DHT22;8311;50.158;8.642;2023-06-14T06:47:12;25.80;34.80
16404;DHT22;8311;50.158;8.642;2023-06-14T06:50:06;25.70;34.50
16404;DHT22;8311;50.158;8.642;2023-06-14T06:53:00;25.60;34.80
16404;DHT22;8311;50.158;8.642;2023-06-14T06:55:54;25.60;35.00
16404;DHT22;8311;50.158;8.642;2023-06-14T06:58:48;25.70;35.00
16404;DHT22;8311;50.158;8.642;2023-06-14T07:01:41;25.80;35.10
16404;DHT22;8311;50.158;8.642;2023-06-14T07:04:35;25.80;35.00
16404;DHT22;8311;50.158;8.642;2023-06-14T07:07:28;25.90;35.10
16404;DHT22;8311;50.158;8.642;2023-06-14T07:10:21;25.90;35.10
16404;DHT22;8311;50.158;8.642;2023-06-14T07:13:17;25.90;35.10
16404;DHT22;8311;50.158;8.642;2023-06-14T07:16:11;25.90;35.20
16404;DHT22;8311;50.158;8.642;2023-06-14T07:19:04;25.90;35.30
16404;DHT22;8311;50.158;8.642;2023-06-14T07:21:57;26.00;35.40
16404;DHT22;8311;50.158;8.642;2023-06-14T07:24:51;26.00;35.40
16404;DHT22;8311;50.158;8.642;2023-06-14T07:27:46;26.00;35.50
16404;DHT22;8311;50.158;8.642;2023-06-14T07:30:41;26.00;35.50
16404;DHT22;8311;50.158;8.642;2023-06-14T07:33:35;26.00;35.50
16404;DHT22;8311;50.158;8.642;2023-06-14T07:36:30;26.10;35.60
16404;DHT22;8311;50.158;8.642;2023-06-14T07:39:23;26.10;35.70
16404;DHT22;8311;50.158;8.642;2023-06-14T07:42:16;26.10;35.70
16404;DHT22;8311;50.158;8.642;2023-06-14T07:45:12;26.00;35.70
16404;DHT22;8311;50.158;8.642;2023-06-14T07:48:07;26.10;35.80
16404;DHT22;8311;50.158;8.642;2023-06-14T07:50:59;26.00;35.70
16404;DHT22;8311;50.158;8.642;2023-06-14T07:53:54;26.10;35.80
16404;DHT22;8311;50.158;8.642;2023-06-14T07:56:47;26.10;35.80
16404;DHT22;8311;50.158;8.642;2023-06-14T07:59:40;26.10;35.80
16404;DHT22;8311;50.158;8.642;2023-06-14T08:02:33;26.10;35.80
16404;DHT22;8311;50.158;8.642;2023-06-14T08:05:27;26.10;35.90
16404;DHT22;8311;50.158;8.642;2023-06-14T08:08:20;26.10;35.90
16404;DHT22;8311;50.158;8.642;2023-06-14T08:11:14;26.10;35.90
16404;DHT22;8311;50.158;8.642;2023-06-14T08:14:06;26.10;35.90
16404;DHT22;8311;50.158;8.642;2023-06-14T08:17:00;26.10;35.90
16404;DHT22;8311;50.158;8.642;2023-06-14T08:19:53;26.10;35.80
16404;DHT22;8311;50.158;8.642;2023-06-14T08:22:50;26.10;35.80
16404;DHT22;8311;50.158;8.642;2023-06-14T08:25:47;26.10;35.80
16404;DHT22;8311;50.158;8.642;2023-06-14T08:28:41;26.10;35.80
16404;DHT22;8311;50.158;8.642;2023-06-14T08:31:34;26.10;35.80
16404;DHT22;8311;50.158;8.642;2023-06-14T08:34:27;26.10;35.80
16404;DHT22;8311;50.158;8.642;2023-06-14T08:37:19;26.10;35.80
16404;DHT22;8311;50.158;8.642;2023-06-14T08:40:18;26.10;35.80
16404;DHT22;8311;50.158;8.642;2023-06-14T08:43:13;26.10;35.80
16404;DHT22;8311;50.158;8.642;2023-06-14T08:46:07;26.10;35.80
16404;DHT22;8311;50.158;8.642;2023-06-14T08:49:04;26.10;35.80
16404;DHT22;8311;50.158;8.642;2023-06-14T08:51:59;26.10;35.80
16404;DHT22;8311;50.158;8.642;2023-06-14T08:54:52;26.10;35.80
16404;DHT22;8311;50.158;8.642;2023-06-14T08:57:47;26.10;35.80
16404;DHT22;8311;50.158;8.642;2023-06-14T09:00:42;26.10;35.80
16404;DHT22;8311;50.158;8.642;2023-06-14T09:03:37;26.10;35.80
16404;DHT22;8311;50.158;8.642;2023-06-14T09:06:33;26.10;35.80
16404;DHT22;8311;50.158;8.642;2023-06-14T09:09:29;26.10;35.80
16404;DHT22;8311;50.158;8.642;2023-06-14T09:12:22;26.10;35.80
16404;DHT22;8311;50.158;8.642;2023-06-14T09:15:16;26.10;35.80
16404;DHT22;8311;50.158;8.642;2023-06-14T09:18:11;26.10;35.80
16404;DHT22;8311;50.158;8.642;2023-06-14T09:21:05;26.10;35.80
16404;DHT22;8311;50.158;8.642;2023-06-14T09:23:59;26.10;35.80
16404;DHT22;8311;50.158;8.642;2023-06-14T09:26:53;26.10;36.50
16404;DHT22;8311;50.158;8.642;2023-06-14T09:29:47;26.20;35.90
16404;DHT22;8311;50.158;8.642;2023-06-14T09:32:41;26.20;35.90
16404;DHT22;8311;50.158;8.642;2023-06-14T09:35:35;26.10;35.80
16404;DHT22;8311;50.158;8.642;2023-06-14T09:38:28;26.10;35.80
16404;DHT22;8311;50.158;8.642;2023-06-14T09:41:30;26.20;35.90
16404;DHT22;8311;50.158;8.642;2023-06-14T09:44:25;26.20;35.90
16404;DHT22;8311;50.158;8.642;2023-06-14T09:47:20;26.10;35.80
16404;DHT22;8311;50.158;8.642;2023-06-14T09:50:15;26.10;35.90
16404;DHT22;8311;50.158;8.642;2023-06-14T09:53:11;26.20;35.90
16404;DHT22;8311;50.158;8.642;2023-06-14T09:56:05;26.20;36.00
16404;DHT22;8311;50.158;8.642;2023-06-14T09:58:59;26.20;36.00
16404;DHT22;8311;50.158;8.642;2023-06-14T10:02:00;26.10;35.90
16404;DHT22;8311;50.158;8.642;2023-06-14T10:05:02;26.10;35.90
16404;DHT22;8311;50.158;8.642;2023-06-14T10:08:04;26.20;36.00
16404;DHT22;8311;50.158;8.642;2023-06-14T10:10:56;26.20;35.90
16404;DHT22;8311;50.158;8.642;2023-06-14T10:13:50;26.20;35.90
16404;DHT22;8311;50.158;8.642;2023-06-14T10:16:50;26.20;35.90
16404;DHT22;8311;50.158;8.642;2023-06-14T10:19:50;26.20;35.90
16404;DHT22;8311;50.158;8.642;2023-06-14T10:22:49;26.20;35.90
16404;DHT22;8311;50.158;8.642;2023-06-14T10:25:44;26.20;35.80
16404;DHT22;8311;50.158;8.642;2023-06-14T10:28:38;26.20;35.80
16404;DHT22;8311;50.158;8.642;2023-06-14T10:31:41;26.20;35.80
16404;DHT22;8311;50.158;8.642;2023-06-14T10:34:38;26.20;35.80
16404;DHT22;8311;50.158;8.642;2023-06-14T10:37:32;26.20;35.80
16404;DHT22;8311;50.158;8.642;2023-06-14T10:40:31;26.20;35.80
16404;DHT22;8311;50.158;8.642;2023-06-14T10:43:26;26.20;35.80
16404;DHT22;8311;50.158;8.642;2023-06-14T10:46:20;26.20;35.80
16404;DHT22;8311;50.158;8.642;2023-06-14T10:49:16;26.20;35.80
16404;DHT22;8311;50.158;8.642;2023-06-14T10:52:11;26.20;35.80
16404;DHT22;8311;50.158;8.642;2023-06-14T10:55:09;26.20;35.80
16404;DHT22;8311;50.158;8.642;2023-06-14T10:58:04;26.20;35.80
16404;DHT22;8311;50.158;8.642;2023-06-14T11:00:59;26.20;35.80
16404;DHT22;8311;50.158;8.642;2023-06-14T11:03:52;26.20;35.70
16404;DHT22;8311;50.158;8.642;2023-06-14T11:06:47;26.20;35.80
16404;DHT22;8311;50.158;8.642;2023-06-14T11:10:00;26.20;35.80
16404;DHT22;8311;50.158;8.642;2023-06-14T11:12:56;26.20;35.80
16404;DHT22;8311;50.158;8.642;2023-06-14T11:15:49;26.20;35.80
16404;DHT22;8311;50.158;8.642;2023-06-14T11:18:55;26.20;35.70
16404;DHT22;8311;50.158;8.642;2023-06-14T11:21:49;26.20;35.70
16404;DHT22;8311;50.158;8.642;2023-06-14T11:24:43;26.20;35.80
16404;DHT22;8311;50.158;8.642;2023-06-14T11:27:37;26.20;35.80
16404;DHT22;8311;50.158;8.642;2023-06-14T11:30:31;26.20;35.80
16404;DHT22;8311;50.158;8.642;2023-06-14T11:33:24;26.20;35.80
16404;DHT22;8311;50.158;8.642;2023-06-14T11:36:18;26.20;35.70
16404;DHT22;8311;50.158;8.642;2023-06-14T11:39:11;26.20;35.80
16404;DHT22;8311;50.158;8.642;2023-06-14T11:42:05;26.20;35.80
16404;DHT22;8311;50.158;8.642;2023-06-14T11:44:58;26.20;35.80
16404;DHT22;8311;50.158;8.642;2023-06-14T11:48:01;26.20;35.90
16404;DHT22;8311;50.158;8.642;2023-06-14T11:50:55;26.20;36.00
16404;DHT22;8311;50.158;8.642;2023-06-14T11:53:49;26.20;36.00
16404;DHT22;8311;50.158;8.642;2023-06-14T11:56:43;26.20;36.10
16404;DHT22;8311;50.158;8.642;2023-06-14T11:59:38;26.20;36.10
16404;DHT22;8311;50.158;8.642;2023-06-14T12:02:32;26.20;36.20
16404;DHT22;8311;50.158;8.642;2023-06-14T12:05:25;26.20;36.20
16404;DHT22;8311;50.158;8.642;2023-06-14T12:08:19;26.20;36.20
16404;DHT22;8311;50.158;8.642;2023-06-14T12:11:16;26.20;36.20
16404;DHT22;8311;50.158;8.642;2023-06-14T12:14:10;26.20;36.20
16404;DHT22;8311;50.158;8.642;2023-06-14T12:17:06;26.20;36.30
16404;DHT22;8311;50.158;8.642;2023-06-14T12:20:05;26.20;36.30
16404;DHT22;8311;50.158;8.642;2023-06-14T12:23:04;26.20;36.30
16404;DHT22;8311;50.158;8.642;2023-06-14T12:25:59;26.20;36.30
16404;DHT22;8311;50.158;8.642;2023-06-14T12:28:53;26.20;36.60
16404;DHT22;8311;50.158;8.642;2023-06-14T12:31:47;26.20;36.90
16404;DHT22;8311;50.158;8.642;2023-06-14T12:34:41;26.20;36.90
16404;DHT22;8311;50.158;8.642;2023-06-14T12:37:34;26.20;37.00
16404;DHT22;8311;50.158;8.642;2023-06-14T12:40:28;26.20;37.10
16404;DHT22;8311;50.158;8.642;2023-06-14T12:43:21;26.20;36.90
16404;DHT22;8311;50.158;8.642;2023-06-14T12:46:15;26.20;37.20
16404;DHT22;8311;50.158;8.642;2023-06-14T12:49:09;26.20;37.20
16404;DHT22;8311;50.158;8.642;2023-06-14T12:52:03;26.20;37.30
16404;DHT22;8311;50.158;8.642;2023-06-14T12:54:57;26.20;37.40
16404;DHT22;8311;50.158;8.642;2023-06-14T12:57:50;26.20;37.40
16404;DHT22;8311;50.158;8.642;2023-06-14T13:00:43;26.20;37.40
16404;DHT22;8311;50.158;8.642;2023-06-14T13:03:37;26.20;37.50
16404;DHT22;8311;50.158;8.642;2023-06-14T13:06:31;26.10;37.50
16404;DHT22;8311;50.158;8.642;2023-06-14T13:09:24;26.20;37.50
16404;DHT22;8311;50.158;8.642;2023-06-14T13:12:18;26.20;37.60
16404;DHT22;8311;50.158;8.642;2023-06-14T13:15:12;26.20;37.30
16404;DHT22;8311;50.158;8.642;2023-06-14T13:18:05;26.20;37.00
16404;DHT22;8311;50.158;8.642;2023-06-14T13:21:00;26.20;37.00
16404;DHT22;8311;50.158;8.642;2023-06-14T13:23:53;26.20;36.90
16404;DHT22;8311;50.158;8.642;2023-06-14T13:26:47;26.20;36.90
16404;DHT22;8311;50.158;8.642;2023-06-14T13:29:40;26.20;37.00
16404;DHT22;8311;50.158;8.642;2023-06-14T13:32:34;26.20;36.90
16404;DHT22;8311;50.158;8.642;2023-06-14T13:35:28;26.20;37.60
16404;DHT22;8311;50.158;8.642;2023-06-14T13:38:23;26.20;37.10
16404;DHT22;8311;50.158;8.642;2023-06-14T13:41:18;26.20;37.00
16404;DHT22;8311;50.158;8.642;2023-06-14T13:44:11;26.20;36.90
16404;DHT22;8311;50.158;8.642;2023-06-14T13:47:08;26.20;37.00
16404;DHT22;8311;50.158;8.642;2023-06-14T13:50:02;26.20;36.90
16404;DHT22;8311;50.158;8.642;2023-06-14T13:52:56;26.20;37.00
16404;DHT22;8311;50.158;8.642;2023-06-14T13:55:52;26.20;37.00
16404;DHT22;8311;50.158;8.642;2023-06-14T13:58:46;26.20;37.00
16404;DHT22;8311;50.158;8.642;2023-06-14T14:01:39;26.20;37.00
16404;DHT22;8311;50.158;8.642;2023-06-14T14:04:34;26.20;37.00
16404;DHT22;8311;50.158;8.642;2023-06-14T14:07:28;26.20;37.00
16404;DHT22;8311;50.158;8.642;2023-06-14T14:10:22;26.20;37.10
16404;DHT22;8311;50.158;8.642;2023-06-14T14:13:16;26.20;37.10
16404;DHT22;8311;50.158;8.642;2023-06-14T14:16:10;26.20;37.00
16404;DHT22;8311;50.158;8.642;2023-06-14T14:19:03;26.20;37.10
16404;DHT22;8311;50.158;8.642;2023-06-14T14:21:57;26.20;37.10
16404;DHT22;8311;50.158;8.642;2023-06-14T14:24:51;26.20;37.10
16404;DHT22;8311;50.158;8.642;2023-06-14T14:27:44;26.20;37.10
16404;DHT22;8311;50.158;8.642;2023-06-14T14:30:38;26.20;37.10
16404;DHT22;8311;50.158;8.642;2023-06-14T14:33:32;26.20;37.10
16404;DHT22;8311;50.158;8.642;2023-06-14T14:36:26;26.20;37.70
16404;DHT22;8311;50.158;8.642;2023-06-14T14:39:19;26.20;37.10
16404;DHT22;8311;50.158;8.642;2023-06-14T14:42:12;26.20;37.10
16404;DHT22;8311;50.158;8.642;2023-06-14T14:45:06;26.20;37.70
16404;DHT22;8311;50.158;8.642;2023-06-14T14:48:01;26.20;37.20
16404;DHT22;8311;50.158;8.642;2023-06-14T14:50:55;26.20;37.20
16404;DHT22;8311;50.158;8.642;2023-06-14T14:53:49;26.20;37.10
16404;DHT22;8311;50.158;8.642;2023-06-14T14:56:46;26.20;37.20
16404;DHT22;8311;50.158;8.642;2023-06-14T14:59:39;26.20;37.20
16404;DHT22;8311;50.158;8.642;2023-06-14T15:02:33;26.20;37.20
16404;DHT22;8311;50.158;8.642;2023-06-14T15:05:27;26.20;37.20
16404;DHT22;8311;50.158;8.642;2023-06-14T15:08:21;26.20;37.20
16404;DHT22;8311;50.158;8.642;2023-06-14T15:11:15;26.20;37.20
16404;DHT22;8311;50.158;8.642;2023-06-14T15:14:08;26.20;37.30
16404;DHT22;8311;50.158;8.642;2023-06-14T15:17:02;26.20;37.30
16404;DHT22;8311;50.158;8.642;2023-06-14T15:19:59;26.20;37.30
16404;DHT22;8311;50.158;8.642;2023-06-14T15:22:55;26.20;37.30
16404;DHT22;8311;50.158;8.642;2023-06-14T15:25:51;26.20;37.30
16404;DHT22;8311;50.158;8.642;2023-06-14T15:28:44;26.20;37.30
16404;DHT22;8311;50.158;8.642;2023-06-14T15:31:37;26.20;37.30
16404;DHT22;8311;50.158;8.642;2023-06-14T15:34:32;26.20;37.30
16404;DHT22;8311;50.158;8.642;2023-06-14T15:37:25;26.20;37.30
16404;DHT22;8311;50.158;8.642;2023-06-14T15:40:20;26.20;37.30
16404;DHT22;8311;50.158;8.642;2023-06-14T15:43:13;26.20;37.40
16404;DHT22;8311;50.158;8.642;2023-06-14T15:46:06;26.20;37.40
16404;DHT22;8311;50.158;8.642;2023-06-14T15:49:01;26.20;37.40
16404;DHT22;8311;50.158;8.642;2023-06-14T15:51:55;26.10;37.30
16404;DHT22;8311;50.158;8.642;2023-06-14T15:54:50;26.20;37.40
16404;DHT22;8311;50.158;8.642;2023-06-14T15:57:45;26.20;37.40
16404;DHT22;8311;50.158;8.642;2023-06-14T16:00:39;26.10;37.40
16404;DHT22;8311;50.158;8.642;2023-06-14T16:03:33;26.10;37.40
16404;DHT22;8311;50.158;8.642;2023-06-14T16:06:27;26.20;37.40
16404;DHT22;8311;50.158;8.642;2023-06-14T16:09:20;26.20;37.60
16404;DHT22;8311;50.158;8.642;2023-06-14T16:12:13;26.10;37.70
16404;DHT22;8311;50.158;8.642;2023-06-14T16:15:09;26.20;38.50
16404;DHT22;8311;50.158;8.642;2023-06-14T16:18:04;26.20;37.90
16404;DHT22;8311;50.158;8.642;2023-06-14T16:20:57;26.20;37.70
16404;DHT22;8311;50.158;8.642;2023-06-14T16:23:50;26.10;37.80
16404;DHT22;8311;50.158;8.642;2023-06-14T16:26:43;26.20;37.90
16404;DHT22;8311;50.158;8.642;2023-06-14T16:29:36;26.20;38.00
16404;DHT22;8311;50.158;8.642;2023-06-14T16:32:32;26.20;38.00
16404;DHT22;8311;50.158;8.642;2023-06-14T16:35:25;26.20;38.00
16404;DHT22;8311;50.158;8.642;2023-06-14T16:38:18;26.20;38.00
16404;DHT22;8311;50.158;8.642;2023-06-14T16:41:13;26.20;38.00
16404;DHT22;8311;50.158;8.642;2023-06-14T16:44:06;26.10;37.90
16404;DHT22;8311;50.158;8.642;2023-06-14T16:47:00;26.20;38.00
16404;DHT22;8311;50.158;8.642;2023-06-14T16:49:56;26.20;37.90
16404;DHT22;8311;50.158;8.642;2023-06-14T16:52:49;26.20;37.90
16404;DHT22;8311;50.158;8.642;2023-06-14T16:55:42;26.20;38.00
16404;DHT22;8311;50.158;8.642;2023-06-14T16:58:35;26.20;37.90
16404;DHT22;8311;50.158;8.642;2023-06-14T17:01:28;26.20;37.90
16404;DHT22;8311;50.158;8.642;2023-06-14T17:04:22;26.10;37.80
16404;DHT22;8311;50.158;8.642;2023-06-14T17:07:17;26.10;37.90
16404;DHT22;8311;50.158;8.642;2023-06-14T17:10:10;26.20;38.00
16404;DHT22;8311;50.158;8.642;2023-06-14T17:13:03;26.20;38.00
16404;DHT22;8311;50.158;8.642;2023-06-14T17:15:56;26.20;38.00
16404;DHT22;8311;50.158;8.642;2023-06-14T17:18:49;26.20;38.00
16404;DHT22;8311;50.158;8.642;2023-06-14T17:21:42;26.20;38.00
16404;DHT22;8311;50.158;8.642;2023-06-14T17:24:42;26.20;38.10
16404;DHT22;8311;50.158;8.642;2023-06-14T17:27:36;26.20;38.00
16404;DHT22;8311;50.158;8.642;2023-06-14T17:30:29;26.10;38.00
16404;DHT22;8311;50.158;8.642;2023-06-14T17:33:23;26.20;38.10
16404;DHT22;8311;50.158;8.642;2023-06-14T17:36:16;26.20;38.10
16404;DHT22;8311;50.158;8.642;2023-06-14T17:39:09;26.20;38.10
16404;DHT22;8311;50.158;8.642;2023-06-14T17:42:05;26.20;38.10
16404;DHT22;8311;50.158;8.642;2023-06-14T17:44:58;26.20;38.20
16404;DHT22;8311;50.158;8.642;2023-06-14T17:47:52;26.20;38.20
16404;DHT22;8311;50.158;8.642;2023-06-14T17:50:45;26.20;38.20
16404;DHT22;8311;50.158;8.642;2023-06-14T17:53:39;26.20;38.20
16404;DHT22;8311;50.158;8.642;2023-06-14T17:56:32;26.20;38.20
16404;DHT22;8311;50.158;8.642;2023-06-14T17:59:27;26.20;38.10
16404;DHT22;8311;50.158;8.642;2023-06-14T18:02:21;26.20;38.10
16404;DHT22;8311;50.158;8.642;2023-06-14T18:05:14;26.20;38.00
16404;DHT22;8311;50.158;8.642;2023-06-14T18:08:07;26.20;38.00
16404;DHT22;8311;50.158;8.642;2023-06-14T18:11:00;26.10;37.90
16404;DHT22;8311;50.158;8.642;2023-06-14T18:13:53;26.10;37.70
16404;DHT22;8311;50.158;8.642;2023-06-14T18:16:48;26.20;37.60
16404;DHT22;8311;50.158;8.642;2023-06-14T18:19:43;26.10;37.40
16404;DHT22;8311;50.158;8.642;2023-06-14T18:22:36;26.10;36.50
16404;DHT22;8311;50.158;8.642;2023-06-14T18:25:29;26.20;37.30
16404;DHT22;8311;50.158;8.642;2023-06-14T18:28:22;26.10;36.80
16404;DHT22;8311;50.158;8.642;2023-06-14T18:31:16;26.10;36.70
16404;DHT22;8311;50.158;8.642;2023-06-14T18:34:10;26.10;36.60
16404;DHT22;8311;50.158;8.642;2023-06-14T18:37:04;26.20;36.50